sensor_id;sensor_type;location;lat;lon;timestamp;temperature;humidity
37412;DHT22;23278;52.110;6.050;2024-02-15T00:00:31;12.40;99.90
37412;DHT22;23278;52.110;6.050;2024-02-15T00:02:58;12.40;99.90
37412;DHT22;23278;52.110;6.050;2024-02-15T00:05:24;12.40;99.90
37412;DHT22;23278;52.110;6.050;2024-02-15T00:07:50;12.40;99.90
37412;DHT22;23278;52.110;6.050;2024-02-15T00:10:16;12.40;99.90
37412;DHT22;23278;52.110;6.050;2024-02-15T00:12:42;12.50;99.90
37412;DHT22;23278;52.110;6.050;2024-02-15T00:15:08;12.50;99.90
37412;DHT22;23278;52.110;6.050;2024-02-15T00:17:34;12.50;99.90
37412;DHT22;23278;52.110;6.050;2024-02-15T00:20:03;12.50;99.90
37412;DHT22;23278;52.110;6.050;2024-02-15T00:22:36;12.50;99.90
37412;DHT22;23278;52.110;6.050;2024-02-15T00:25:02;12.50;99.90
37412;DHT22;23278;52.110;6.050;2024-02-15T00:27:29;12.50;99.90
37412;DHT22;23278;52.110;6.050;2024-02-15T00:29:54;12.50;99.90
37412;DHT22;23278;52.110;6.050;2024-02-15T00:32:20;12.50;99.90
37412;DHT22;23278;52.110;6.050;2024-02-15T00:34:46;12.50;99.90
37412;DHT22;23278;52.110;6.050;2024-02-15T00:37:12;12.50;99.90
37412;DHT22;23278;52.110;6.050;2024-02-15T00:39:38;12.50;99.90
37412;DHT22;23278;52.110;6.050;2024-02-15T00:42:04;12.50;99.90
37412;DHT22;23278;52.110;6.050;2024-02-15T00:44:35;12.50;99.90
37412;DHT22;23278;52.110;6.050;2024-02-15T00:47:00;12.50;99.90
37412;DHT22;23278;52.110;6.050;2024-02-15T00:49:26;12.50;99.90
37412;DHT22;23278;52.110;6.050;2024-02-15T00:51:53;12.50;99.90
37412;DHT22;23278;52.110;6.050;2024-02-15T00:54:19;12.50;99.90
37412;DHT22;23278;52.110;6.050;2024-02-15T00:56:45;12.50;99.90
37412;DHT22;23278;52.110;6.050;2024-02-15T00:59:11;12.50;99.90
37412;DHT22;23278;52.110;6.050;2024-02-15T01:01:37;12.50;99.90
37412;DHT22;23278;52.110;6.050;2024-02-15T01:04:04;12.50;99.90
37412;DHT22;23278;52.110;6.050;2024-02-15T01:06:30;12.50;99.90
37412;DHT22;23278;52.110;6.050;2024-02-15T01:08:57;12.50;99.90
37412;DHT22;23278;52.110;6.050;2024-02-15T01:11:23;12.50;99.90
37412;DHT22;23278;52.110;6.050;2024-02-15T01:13:50;12.50;99.90
37412;DHT22;23278;52.110;6.050;2024-02-15T01:16:16;12.50;99.90
37412;DHT22;23278;52.110;6.050;2024-02-15T01:18:42;12.50;99.90
37412;DHT22;23278;52.110;6.050;2024-02-15T01:21:08;12.50;99.90
37412;DHT22;23278;52.110;6.050;2024-02-15T01:23:34;12.50;99.90
37412;DHT22;23278;52.110;6.050;2024-02-15T01:26:02;12.50;99.90
37412;DHT22;23278;52.110;6.050;2024-02-15T01:28:28;12.50;99.90
37412;DHT22;23278;52.110;6.050;2024-02-15T01:30:54;12.50;99.90
37412;DHT22;23278;52.110;6.050;2024-02-15T01:33:20;12.60;99.90
37412;DHT22;23278;52.110;6.050;2024-02-15T01:35:46;12.50;99.90
37412;DHT22;23278;52.110;6.050;2024-02-15T01:38:12;12.50;99.90
37412;DHT22;23278;52.110;6.050;2024-02-15T01:40:38;12.50;99.90
37412;DHT22;23278;52.110;6.050;2024-02-15T01:43:05;12.60;99.90
37412;DHT22;23278;52.110;6.050;2024-02-15T01:45:31;12.60;99.90
37412;DHT22;23278;52.110;6.050;2024-02-15T01:47:57;12.60;99.90
37412;DHT22;23278;52.110;6.050;2024-02-15T01:50:24;12.50;99.90
37412;DHT22;23278;52.110;6.050;2024-02-15T01:52:53;12.60;99.90
37412;DHT22;23278;52.110;6.050;2024-02-15T01:55:21;12.60;99.90
37412;DHT22;23278;52.110;6.050;2024-02-15T01:57:48;12.60;99.90
37412;DHT22;23278;52.110;6.050;2024-02-15T02:06:00;12.60;99.90
37412;DHT22;23278;52.110;6.050;2024-02-15T02:08:29;12.60;99.90
37412;DHT22;23278;52.110;6.050;2024-02-15T02:10:55;12.60;99.90
37412;DHT22;23278;52.110;6.050;2024-02-15T02:13:21;12.60;99.90
37412;DHT22;23278;52.110;6.050;2024-02-15T02:15:47;12.60;99.90
37412;DHT22;23278;52.110;6.050;2024-02-15T02:18:13;12.60;99.90
37412;DHT22;23278;52.110;6.050;2024-02-15T02:20:39;12.60;99.90
37412;DHT22;23278;52.110;6.050;2024-02-15T02:23:09;12.60;99.90
37412;DHT22;23278;52.110;6.050;2024-02-15T02:25:35;12.60;99.90
37412;DHT22;23278;52.110;6.050;2024-02-15T02:28:02;12.60;99.90
37412;DHT22;23278;52.110;6.050;2024-02-15T02:30:28;12.60;99.90
37412;DHT22;23278;52.110;6.050;2024-02-15T02:32:56;12.60;99.90
37412;DHT22;23278;52.110;6.050;2024-02-15T02:35:25;12.60;99.90
37412;DHT22;23278;52.110;6.050;2024-02-15T02:37:52;12.60;99.90
37412;DHT22;23278;52.110;6.050;2024-02-15T02:40:21;12.60;99.90
37412;DHT22;23278;52.110;6.050;2024-02-15T02:42:54;12.70;99.90
37412;DHT22;23278;52.110;6.050;2024-02-15T02:45:22;12.60;99.90
37412;DHT22;23278;52.110;6.050;2024-02-15T02:47:49;12.60;99.90
37412;DHT22;23278;52.110;6.050;2024-02-15T02:50:15;12.60;99.90
37412;DHT22;23278;52.110;6.050;2024-02-15T02:52:41;12.60;99.90
37412;DHT22;23278;52.110;6.050;2024-02-15T02:55:07;12.60;99.90
37412;DHT22;23278;52.110;6.050;2024-02-15T02:57:37;12.60;99.90
37412;DHT22;23278;52.110;6.050;2024-02-15T03:00:14;12.60;99.90
37412;DHT22;23278;52.110;6.050;2024-02-15T03:02:43;12.60;99.90
37412;DHT22;23278;52.110;6.050;2024-02-15T03:05:10;12.70;99.90
37412;DHT22;23278;52.110;6.050;2024-02-15T03:07:38;12.60;99.90
37412;DHT22;23278;52.110;6.050;2024-02-15T03:10:06;12.60;99.90
37412;DHT22;23278;52.110;6.050;2024-02-15T03:12:36;12.60;99.90
37412;DHT22;23278;52.110;6.050;2024-02-15T03:15:06;12.60;99.90
37412;DHT22;23278;52.110;6.050;2024-02-15T03:17:38;12.50;99.90
37412;DHT22;23278;52.110;6.050;2024-02-15T03:20:09;12.60;99.90
37412;DHT22;23278;52.110;6.050;2024-02-15T03:22:52;12.60;99.90
37412;DHT22;23278;52.110;6.050;2024-02-15T03:25:21;12.60;99.90
37412;DHT22;23278;52.110;6.050;2024-02-15T03:27:55;12.60;99.90
37412;DHT22;23278;52.110;6.050;2024-02-15T03:30:22;12.50;99.90
37412;DHT22;23278;52.110;6.050;2024-02-15T03:32:50;12.60;99.90
37412;DHT22;23278;52.110;6.050;2024-02-15T03:35:24;12.50;99.90
37412;DHT22;23278;52.110;6.050;2024-02-15T03:37:50;12.50;99.90
37412;DHT22;23278;52.110;6.050;2024-02-15T03:40:20;12.50;99.90
37412;DHT22;23278;52.110;6.050;2024-02-15T03:42:46;12.50;99.90
37412;DHT22;23278;52.110;6.050;2024-02-15T03:45:12;12.40;99.90
37412;DHT22;23278;52.110;6.050;2024-02-15T03:47:38;12.50;99.90
37412;DHT22;23278;52.110;6.050;2024-02-15T03:50:08;12.40;99.90
37412;DHT22;23278;52.110;6.050;2024-02-15T03:52:38;12.40;99.90
37412;DHT22;23278;52.110;6.050;2024-02-15T03:55:05;12.40;99.90
37412;DHT22;23278;52.110;6.050;2024-02-15T03:57:33;12.40;99.90
37412;DHT22;23278;52.110;6.050;2024-02-15T04:00:00;12.40;99.90
37412;DHT22;23278;52.110;6.050;2024-02-15T04:02:26;12.40;99.90
37412;DHT22;23278;52.110;6.050;2024-02-15T04:04:55;12.40;99.90
37412;DHT22;23278;52.110;6.050;2024-02-15T04:07:24;12.40;99.90
37412;DHT22;23278;52.110;6.050;2024-02-15T04:09:53;12.40;99.90
37412;DHT22;23278;52.110;6.050;2024-02-15T04:12:19;12.40;99.90
37412;DHT22;23278;52.110;6.050;2024-02-15T04:14:45;12.40;99.90
37412;DHT22;23278;52.110;6.050;2024-02-15T04:17:15;12.30;99.90
37412;DHT22;23278;52.110;6.050;2024-02-15T04:19:44;12.30;99.90
37412;DHT22;23278;52.110;6.050;2024-02-15T04:22:12;12.30;99.90
37412;DHT22;23278;52.110;6.050;2024-02-15T04:24:38;12.30;99.90
37412;DHT22;23278;52.110;6.050;2024-02-15T04:27:09;12.20;99.90
37412;DHT22;23278;52.110;6.050;2024-02-15T04:29:38;12.20;99.90
37412;DHT22;23278;52.110;6.050;2024-02-15T04:32:10;12.20;99.90
37412;DHT22;23278;52.110;6.050;2024-02-15T04:34:36;12.10;99.90
37412;DHT22;23278;52.110;6.050;2024-02-15T04:37:03;12.10;99.90
37412;DHT22;23278;52.110;6.050;2024-02-15T04:39:38;12.10;99.90
37412;DHT22;23278;52.110;6.050;2024-02-15T04:42:04;12.10;99.90
37412;DHT22;23278;52.110;6.050;2024-02-15T04:44:39;12.10;99.90
37412;DHT22;23278;52.110;6.050;2024-02-15T04:47:06;12.20;99.90
37412;DHT22;23278;52.110;6.050;2024-02-15T04:49:32;12.20;99.90
37412;DHT22;23278;52.110;6.050;2024-02-15T04:51:58;12.20;99.90
37412;DHT22;23278;52.110;6.050;2024-02-15T04:54:27;12.20;99.90
37412;DHT22;23278;52.110;6.050;2024-02-15T04:56:53;12.30;99.90
37412;DHT22;23278;52.110;6.050;2024-02-15T04:59:20;12.30;99.90
37412;DHT22;23278;52.110;6.050;2024-02-15T05:01:47;12.30;99.90
37412;DHT22;23278;52.110;6.050;2024-02-15T05:04:13;12.30;99.90
37412;DHT22;23278;52.110;6.050;2024-02-15T05:06:39;12.30;99.90
37412;DHT22;23278;52.110;6.050;2024-02-15T05:09:06;12.30;99.90
37412;DHT22;23278;52.110;6.050;2024-02-15T05:11:40;12.30;99.90
37412;DHT22;23278;52.110;6.050;2024-02-15T05:14:15;12.30;99.90
37412;DHT22;23278;52.110;6.050;2024-02-15T05:16:50;12.30;99.90
37412;DHT22;23278;52.110;6.050;2024-02-15T05:19:16;12.30;99.90
37412;DHT22;23278;52.110;6.050;2024-02-15T05:21:43;12.30;99.90
37412;DHT22;23278;52.110;6.050;2024-02-15T05:24:14;12.30;99.90
37412;DHT22;23278;52.110;6.050;2024-02-15T05:26:41;12.40;99.90
37412;DHT22;23278;52.110;6.050;2024-02-15T05:29:12;12.40;99.90
37412;DHT22;23278;52.110;6.050;2024-02-15T05:31:38;12.40;99.90
37412;DHT22;23278;52.110;6.050;2024-02-15T05:34:06;12.40;99.90
37412;DHT22;23278;52.110;6.050;2024-02-15T05:36:38;12.40;99.90
37412;DHT22;23278;52.110;6.050;2024-02-15T05:39:04;12.40;99.90
37412;DHT22;23278;52.110;6.050;2024-02-15T05:41:31;12.40;99.90
37412;DHT22;23278;52.110;6.050;2024-02-15T05:44:00;12.40;99.90
37412;DHT22;23278;52.110;6.050;2024-02-15T05:46:26;12.30;99.90
37412;DHT22;23278;52.110;6.050;2024-02-15T05:48:53;12.30;99.90
37412;DHT22;23278;52.110;6.050;2024-02-15T05:51:21;12.30;99.90
37412;DHT22;23278;52.110;6.050;2024-02-15T05:53:48;12.40;99.90
37412;DHT22;23278;52.110;6.050;2024-02-15T05:56:15;12.40;99.90
37412;DHT22;23278;52.110;6.050;2024-02-15T05:58:42;12.40;99.90
37412;DHT22;23278;52.110;6.050;2024-02-15T06:01:08;12.40;99.90
37412;DHT22;23278;52.110;6.050;2024-02-15T06:03:37;12.40;99.90
37412;DHT22;23278;52.110;6.050;2024-02-15T06:06:05;12.40;99.90
37412;DHT22;23278;52.110;6.050;2024-02-15T06:08:34;12.40;99.90
37412;DHT22;23278;52.110;6.050;2024-02-15T06:11:00;12.40;99.90
37412;DHT22;23278;52.110;6.050;2024-02-15T06:13:27;12.40;99.90
37412;DHT22;23278;52.110;6.050;2024-02-15T06:15:54;12.40;99.90
37412;DHT22;23278;52.110;6.050;2024-02-15T06:18:21;12.40;99.90
37412;DHT22;23278;52.110;6.050;2024-02-15T06:20:48;12.30;99.90
37412;DHT22;23278;52.110;6.050;2024-02-15T06:23:20;12.40;99.90
37412;DHT22;23278;52.110;6.050;2024-02-15T06:25:47;12.40;99.90
37412;DHT22;23278;52.110;6.050;2024-02-15T06:28:13;12.30;99.90
37412;DHT22;23278;52.110;6.050;2024-02-15T06:30:59;12.30;99.90
37412;DHT22;23278;52.110;6.050;2024-02-15T06:33:44;12.30;99.90
37412;DHT22;23278;52.110;6.050;2024-02-15T06:36:28;12.30;99.90
37412;DHT22;23278;52.110;6.050;2024-02-15T06:39:13;12.40;99.90
37412;DHT22;23278;52.110;6.050;2024-02-15T06:41:57;12.30;99.90
37412;DHT22;23278;52.110;6.050;2024-02-15T06:44:23;12.40;99.90
37412;DHT22;23278;52.110;6.050;2024-02-15T06:46:50;12.40;99.90
37412;DHT22;23278;52.110;6.050;2024-02-15T06:49:16;12.40;99.90
37412;DHT22;23278;52.110;6.050;2024-02-15T06:51:42;12.40;99.90
37412;DHT22;23278;52.110;6.050;2024-02-15T06:54:10;12.40;99.90
37412;DHT22;23278;52.110;6.050;2024-02-15T06:56:36;12.40;99.90
37412;DHT22;23278;52.110;6.050;2024-02-15T06:59:03;12.40;99.90
37412;DHT22;23278;52.110;6.050;2024-02-15T07:01:29;12.40;99.90
37412;DHT22;23278;52.110;6.050;2024-02-15T07:03:56;12.40;99.90
37412;DHT22;23278;52.110;6.050;2024-02-15T07:06:22;12.40;99.90
37412;DHT22;23278;52.110;6.050;2024-02-15T07:08:47;12.40;99.90
37412;DHT22;23278;52.110;6.050;2024-02-15T07:11:16;12.40;99.90
37412;DHT22;23278;52.110;6.050;2024-02-15T07:13:42;12.40;99.90
37412;DHT22;23278;52.110;6.050;2024-02-15T07:16:08;12.40;99.90
37412;DHT22;23278;52.110;6.050;2024-02-15T07:18:34;12.40;99.90
37412;DHT22;23278;52.110;6.050;2024-02-15T07:21:00;12.40;99.90
37412;DHT22;23278;52.110;6.050;2024-02-15T07:23:27;12.40;99.90
37412;DHT22;23278;52.110;6.050;2024-02-15T07:25:53;12.50;99.90
37412;DHT22;23278;52.110;6.050;2024-02-15T07:28:20;12.50;99.90
37412;DHT22;23278;52.110;6.050;2024-02-15T07:30:46;12.50;99.90
37412;DHT22;23278;52.110;6.050;2024-02-15T07:33:14;12.50;99.90
37412;DHT22;23278;52.110;6.050;2024-02-15T07:35:44;12.50;99.90
37412;DHT22;23278;52.110;6.050;2024-02-15T07:38:10;12.50;99.90
37412;DHT22;23278;52.110;6.050;2024-02-15T07:40:37;12.50;99.90
37412;DHT22;23278;52.110;6.050;2024-02-15T07:43:05;12.50;99.90
37412;DHT22;23278;52.110;6.050;2024-02-15T07:45:32;12.50;99.90
37412;DHT22;23278;52.110;6.050;2024-02-15T07:48:01;12.50;99.90
37412;DHT22;23278;52.110;6.050;2024-02-15T07:50:30;12.50;99.90
37412;DHT22;23278;52.110;6.050;2024-02-15T07:52:57;12.50;99.90
37412;DHT22;23278;52.110;6.050;2024-02-15T07:55:24;12.50;99.90
37412;DHT22;23278;52.110;6.050;2024-02-15T07:57:53;12.50;99.90
37412;DHT22;23278;52.110;6.050;2024-02-15T08:00:19;12.50;99.90
37412;DHT22;23278;52.110;6.050;2024-02-15T08:02:45;12.60;99.90
37412;DHT22;23278;52.110;6.050;2024-02-15T08:05:12;12.60;99.90
37412;DHT22;23278;52.110;6.050;2024-02-15T08:07:44;12.60;99.90
37412;DHT22;23278;52.110;6.050;2024-02-15T08:10:11;12.60;99.90
37412;DHT22;23278;52.110;6.050;2024-02-15T08:12:46;12.60;99.90
37412;DHT22;23278;52.110;6.050;2024-02-15T08:15:14;12.60;99.90
37412;DHT22;23278;52.110;6.050;2024-02-15T08:17:41;12.60;99.90
37412;DHT22;23278;52.110;6.050;2024-02-15T08:20:11;12.60;99.90
37412;DHT22;23278;52.110;6.050;2024-02-15T08:22:38;12.60;99.90
37412;DHT22;23278;52.110;6.050;2024-02-15T08:25:12;12.60;99.90
37412;DHT22;23278;52.110;6.050;2024-02-15T08:27:47;12.60;99.90
37412;DHT22;23278;52.110;6.050;2024-02-15T08:30:16;12.60;99.90
37412;DHT22;23278;52.110;6.050;2024-02-15T08:32:43;12.60;99.90
37412;DHT22;23278;52.110;6.050;2024-02-15T08:35:11;12.60;99.90
37412;DHT22;23278;52.110;6.050;2024-02-15T08:37:37;12.60;99.90
37412;DHT22;23278;52.110;6.050;2024-02-15T08:40:08;12.50;99.90
37412;DHT22;23278;52.110;6.050;2024-02-15T08:42:41;12.50;99.90
37412;DHT22;23278;52.110;6.050;2024-02-15T08:45:08;12.50;99.90
37412;DHT22;23278;52.110;6.050;2024-02-15T08:47:39;12.50;99.90
37412;DHT22;23278;52.110;6.050;2024-02-15T08:50:07;12.50;99.90
37412;DHT22;23278;52.110;6.050;2024-02-15T08:52:34;12.50;99.90
37412;DHT22;23278;52.110;6.050;2024-02-15T08:55:07;12.40;99.90
37412;DHT22;23278;52.110;6.050;2024-02-15T08:57:35;12.40;99.90
37412;DHT22;23278;52.110;6.050;2024-02-15T09:00:05;12.40;99.90
37412;DHT22;23278;52.110;6.050;2024-02-15T09:02:40;12.40;99.90
37412;DHT22;23278;52.110;6.050;2024-02-15T09:05:06;12.40;99.90
37412;DHT22;23278;52.110;6.050;2024-02-15T09:07:32;12.30;99.90
37412;DHT22;23278;52.110;6.050;2024-02-15T09:09:58;12.40;99.90
37412;DHT22;23278;52.110;6.050;2024-02-15T09:12:24;12.40;99.90
37412;DHT22;23278;52.110;6.050;2024-02-15T09:14:53;12.40;99.90
37412;DHT22;23278;52.110;6.050;2024-02-15T09:17:19;12.40;99.90
37412;DHT22;23278;52.110;6.050;2024-02-15T09:19:48;12.40;99.90
37412;DHT22;23278;52.110;6.050;2024-02-15T09:22:17;12.40;99.90
37412;DHT22;23278;52.110;6.050;2024-02-15T09:24:44;12.40;99.90
37412;DHT22;23278;52.110;6.050;2024-02-15T09:27:10;12.40;99.90
37412;DHT22;23278;52.110;6.050;2024-02-15T09:29:38;12.40;99.90
37412;DHT22;23278;52.110;6.050;2024-02-15T09:32:06;12.50;99.90
37412;DHT22;23278;52.110;6.050;2024-02-15T09:34:32;12.50;99.90
37412;DHT22;23278;52.110;6.050;2024-02-15T09:36:58;12.50;99.90
37412;DHT22;23278;52.110;6.050;2024-02-15T09:39:24;12.50;99.90
37412;DHT22;23278;52.110;6.050;2024-02-15T09:41:50;12.50;99.90
37412;DHT22;23278;52.110;6.050;2024-02-15T09:44:21;12.50;99.90
37412;DHT22;23278;52.110;6.050;2024-02-15T09:47:02;12.50;99.90
37412;DHT22;23278;52.110;6.050;2024-02-15T09:49:30;12.50;99.90
37412;DHT22;23278;52.110;6.050;2024-02-15T09:51:59;12.50;99.90
37412;DHT22;23278;52.110;6.050;2024-02-15T09:54:26;12.50;99.90
37412;DHT22;23278;52.110;6.050;2024-02-15T09:56:52;12.60;99.90
37412;DHT22;23278;52.110;6.050;2024-02-15T09:59:19;12.60;99.90
37412;DHT22;23278;52.110;6.050;2024-02-15T10:01:47;12.60;99.90
37412;DHT22;23278;52.110;6.050;2024-02-15T10:04:13;12.70;99.90
37412;DHT22;23278;52.110;6.050;2024-02-15T10:06:42;12.70;99.90
37412;DHT22;23278;52.110;6.050;2024-02-15T10:09:34;12.80;99.90
37412;DHT22;23278;52.110;6.050;2024-02-15T10:12:03;12.80;99.90
37412;DHT22;23278;52.110;6.050;2024-02-15T10:14:32;12.80;99.90
37412;DHT22;23278;52.110;6.050;2024-02-15T10:17:06;12.90;99.90
37412;DHT22;23278;52.110;6.050;2024-02-15T10:19:35;13.00;99.90
37412;DHT22;23278;52.110;6.050;2024-02-15T10:22:10;13.10;99.90
37412;DHT22;23278;52.110;6.050;2024-02-15T10:24:37;13.10;99.90
37412;DHT22;23278;52.110;6.050;2024-02-15T10:27:05;13.10;99.90
37412;DHT22;23278;52.110;6.050;2024-02-15T10:29:36;13.10;99.90
37412;DHT22;23278;52.110;6.050;2024-02-15T10:32:04;13.10;99.90
37412;DHT22;23278;52.110;6.050;2024-02-15T10:34:43;13.10;99.90
37412;DHT22;23278;52.110;6.050;2024-02-15T10:39:37;13.00;99.90
37412;DHT22;23278;52.110;6.050;2024-02-15T10:42:03;12.90;99.90
37412;DHT22;23278;52.110;6.050;2024-02-15T10:44:31;12.90;99.90
37412;DHT22;23278;52.110;6.050;2024-02-15T10:46:59;12.90;99.90
37412;DHT22;23278;52.110;6.050;2024-02-15T10:49:31;12.90;99.90
37412;DHT22;23278;52.110;6.050;2024-02-15T10:51:58;12.90;99.90
37412;DHT22;23278;52.110;6.050;2024-02-15T10:54:46;12.90;99.90
37412;DHT22;23278;52.110;6.050;2024-02-15T10:57:13;12.90;99.90
37412;DHT22;23278;52.110;6.050;2024-02-15T10:59:55;12.90;99.90
37412;DHT22;23278;52.110;6.050;2024-02-15T11:02:30;12.90;99.90
37412;DHT22;23278;52.110;6.050;2024-02-15T11:05:03;13.00;99.90
37412;DHT22;23278;52.110;6.050;2024-02-15T11:07:34;13.10;99.90
37412;DHT22;23278;52.110;6.050;2024-02-15T11:10:02;13.20;99.90
37412;DHT22;23278;52.110;6.050;2024-02-15T11:12:30;13.20;99.90
37412;DHT22;23278;52.110;6.050;2024-02-15T11:14:56;13.10;99.90
37412;DHT22;23278;52.110;6.050;2024-02-15T11:22:58;13.30;99.90
37412;DHT22;23278;52.110;6.050;2024-02-15T11:25:35;13.40;99.90
37412;DHT22;23278;52.110;6.050;2024-02-15T11:30:50;13.50;99.90
37412;DHT22;23278;52.110;6.050;2024-02-15T11:33:32;13.60;99.90
37412;DHT22;23278;52.110;6.050;2024-02-15T11:36:13;13.50;99.90
37412;DHT22;23278;52.110;6.050;2024-02-15T11:38:40;13.50;99.90
37412;DHT22;23278;52.110;6.050;2024-02-15T11:41:07;13.50;99.90
37412;DHT22;23278;52.110;6.050;2024-02-15T11:46:15;13.50;99.90
37412;DHT22;23278;52.110;6.050;2024-02-15T11:48:41;13.50;99.90
37412;DHT22;23278;52.110;6.050;2024-02-15T11:51:08;13.60;99.90
37412;DHT22;23278;52.110;6.050;2024-02-15T11:53:37;13.60;99.90
37412;DHT22;23278;52.110;6.050;2024-02-15T11:56:03;13.60;99.90
37412;DHT22;23278;52.110;6.050;2024-02-15T11:58:34;13.70;99.90
37412;DHT22;23278;52.110;6.050;2024-02-15T12:01:18;13.70;99.90
37412;DHT22;23278;52.110;6.050;2024-02-15T12:04:03;13.80;99.90
37412;DHT22;23278;52.110;6.050;2024-02-15T12:06:48;13.80;99.90
37412;DHT22;23278;52.110;6.050;2024-02-15T12:09:33;13.90;99.90
37412;DHT22;23278;52.110;6.050;2024-02-15T12:12:17;14.00;99.90
37412;DHT22;23278;52.110;6.050;2024-02-15T12:15:03;14.10;99.90
37412;DHT22;23278;52.110;6.050;2024-02-15T12:17:48;14.20;99.90
37412;DHT22;23278;52.110;6.050;2024-02-15T12:20:32;14.40;99.90
37412;DHT22;23278;52.110;6.050;2024-02-15T12:23:00;14.60;99.90
37412;DHT22;23278;52.110;6.050;2024-02-15T12:25:28;14.70;99.90
37412;DHT22;23278;52.110;6.050;2024-02-15T12:27:59;14.80;99.90
37412;DHT22;23278;52.110;6.050;2024-02-15T12:30:32;14.90;99.90
37412;DHT22;23278;52.110;6.050;2024-02-15T12:33:09;15.00;99.90
37412;DHT22;23278;52.110;6.050;2024-02-15T12:35:36;15.00;99.90
37412;DHT22;23278;52.110;6.050;2024-02-15T12:38:05;15.00;99.90
37412;DHT22;23278;52.110;6.050;2024-02-15T12:40:35;15.20;99.90
37412;DHT22;23278;52.110;6.050;2024-02-15T12:43:04;15.40;99.90
37412;DHT22;23278;52.110;6.050;2024-02-15T12:45:40;15.50;99.90
37412;DHT22;23278;52.110;6.050;2024-02-15T12:48:10;15.40;99.90
37412;DHT22;23278;52.110;6.050;2024-02-15T12:50:37;15.40;99.90
37412;DHT22;23278;52.110;6.050;2024-02-15T12:53:04;15.40;99.90
37412;DHT22;23278;52.110;6.050;2024-02-15T12:55:36;15.40;99.90
37412;DHT22;23278;52.110;6.050;2024-02-15T12:58:04;15.50;99.90
37412;DHT22;23278;52.110;6.050;2024-02-15T13:00:34;15.50;99.90
37412;DHT22;23278;52.110;6.050;2024-02-15T13:03:03;15.60;99.90
37412;DHT22;23278;52.110;6.050;2024-02-15T13:05:30;15.70;99.90
37412;DHT22;23278;52.110;6.050;2024-02-15T13:07:57;15.70;99.90
37412;DHT22;23278;52.110;6.050;2024-02-15T13:10:23;15.60;99.90
37412;DHT22;23278;52.110;6.050;2024-02-15T13:12:52;15.60;99.90
37412;DHT22;23278;52.110;6.050;2024-02-15T13:15:18;15.50;99.90
37412;DHT22;23278;52.110;6.050;2024-02-15T13:17:48;15.60;99.90
37412;DHT22;23278;52.110;6.050;2024-02-15T13:20:14;15.60;99.90
37412;DHT22;23278;52.110;6.050;2024-02-15T13:22:42;15.60;99.90
37412;DHT22;23278;52.110;6.050;2024-02-15T13:25:09;15.70;99.90
37412;DHT22;23278;52.110;6.050;2024-02-15T13:27:36;15.80;99.90
37412;DHT22;23278;52.110;6.050;2024-02-15T13:30:06;15.80;99.90
37412;DHT22;23278;52.110;6.050;2024-02-15T13:32:40;15.90;99.90
37412;DHT22;23278;52.110;6.050;2024-02-15T13:35:10;16.10;99.90
37412;DHT22;23278;52.110;6.050;2024-02-15T13:37:49;16.20;99.90
37412;DHT22;23278;52.110;6.050;2024-02-15T13:40:15;16.20;99.90
37412;DHT22;23278;52.110;6.050;2024-02-15T13:42:43;16.20;99.90
37412;DHT22;23278;52.110;6.050;2024-02-15T13:45:15;16.10;99.90
37412;DHT22;23278;52.110;6.050;2024-02-15T13:47:44;16.10;99.90
37412;DHT22;23278;52.110;6.050;2024-02-15T13:50:12;16.00;99.90
37412;DHT22;23278;52.110;6.050;2024-02-15T13:52:43;15.90;99.90
37412;DHT22;23278;52.110;6.050;2024-02-15T13:55:14;15.90;99.90
37412;DHT22;23278;52.110;6.050;2024-02-15T13:57:41;15.90;99.90
37412;DHT22;23278;52.110;6.050;2024-02-15T14:00:10;15.90;99.90
37412;DHT22;23278;52.110;6.050;2024-02-15T14:02:54;15.90;99.90
37412;DHT22;23278;52.110;6.050;2024-02-15T14:05:22;15.90;99.90
37412;DHT22;23278;52.110;6.050;2024-02-15T14:07:52;15.80;99.90
37412;DHT22;23278;52.110;6.050;2024-02-15T14:10:25;15.90;99.90
37412;DHT22;23278;52.110;6.050;2024-02-15T14:12:53;15.90;99.90
37412;DHT22;23278;52.110;6.050;2024-02-15T14:15:27;15.90;99.90
37412;DHT22;23278;52.110;6.050;2024-02-15T14:17:53;15.90;99.90
37412;DHT22;23278;52.110;6.050;2024-02-15T14:20:19;15.90;99.90
37412;DHT22;23278;52.110;6.050;2024-02-15T14:22:47;16.00;99.90
37412;DHT22;23278;52.110;6.050;2024-02-15T14:25:24;16.00;99.90
37412;DHT22;23278;52.110;6.050;2024-02-15T14:27:56;16.10;99.90
37412;DHT22;23278;52.110;6.050;2024-02-15T14:30:22;16.40;99.90
37412;DHT22;23278;52.110;6.050;2024-02-15T14:33:10;16.60;99.90
37412;DHT22;23278;52.110;6.050;2024-02-15T14:35:45;16.80;99.90
37412;DHT22;23278;52.110;6.050;2024-02-15T14:38:12;17.00;99.90
37412;DHT22;23278;52.110;6.050;2024-02-15T14:40:43;17.10;99.90
37412;DHT22;23278;52.110;6.050;2024-02-15T14:43:11;17.00;99.90
37412;DHT22;23278;52.110;6.050;2024-02-15T14:45:39;16.80;99.90
37412;DHT22;23278;52.110;6.050;2024-02-15T14:48:11;16.60;99.90
37412;DHT22;23278;52.110;6.050;2024-02-15T14:50:39;16.40;99.90
37412;DHT22;23278;52.110;6.050;2024-02-15T14:53:05;16.30;99.90
37412;DHT22;23278;52.110;6.050;2024-02-15T14:55:34;16.20;99.90
37412;DHT22;23278;52.110;6.050;2024-02-15T14:58:00;16.00;99.90
37412;DHT22;23278;52.110;6.050;2024-02-15T15:00:26;16.00;99.90
37412;DHT22;23278;52.110;6.050;2024-02-15T15:02:53;15.90;99.90
37412;DHT22;23278;52.110;6.050;2024-02-15T15:05:22;15.90;99.90
37412;DHT22;23278;52.110;6.050;2024-02-15T15:08:07;15.90;99.90
37412;DHT22;23278;52.110;6.050;2024-02-15T15:10:52;15.80;99.90
37412;DHT22;23278;52.110;6.050;2024-02-15T15:13:36;15.80;99.90
37412;DHT22;23278;52.110;6.050;2024-02-15T15:16:03;15.70;99.90
37412;DHT22;23278;52.110;6.050;2024-02-15T15:18:30;15.60;99.90
37412;DHT22;23278;52.110;6.050;2024-02-15T15:21:02;15.60;99.90
37412;DHT22;23278;52.110;6.050;2024-02-15T15:23:28;15.60;99.90
37412;DHT22;23278;52.110;6.050;2024-02-15T15:26:03;15.50;99.90
37412;DHT22;23278;52.110;6.050;2024-02-15T15:28:29;15.50;99.90
37412;DHT22;23278;52.110;6.050;2024-02-15T15:30:54;15.40;99.90
37412;DHT22;23278;52.110;6.050;2024-02-15T15:33:22;15.30;99.90
37412;DHT22;23278;52.110;6.050;2024-02-15T15:35:49;15.30;99.90
37412;DHT22;23278;52.110;6.050;2024-02-15T15:38:15;15.30;99.90
37412;DHT22;23278;52.110;6.050;2024-02-15T15:40:41;15.20;99.90
37412;DHT22;23278;52.110;6.050;2024-02-15T15:43:08;15.20;99.90
37412;DHT22;23278;52.110;6.050;2024-02-15T15:45:34;15.20;99.90
37412;DHT22;23278;52.110;6.050;2024-02-15T15:48:03;15.20;99.90
37412;DHT22;23278;52.110;6.050;2024-02-15T15:50:30;15.20;99.90
37412;DHT22;23278;52.110;6.050;2024-02-15T15:53:04;15.10;99.90
37412;DHT22;23278;52.110;6.050;2024-02-15T15:55:31;15.10;99.90
37412;DHT22;23278;52.110;6.050;2024-02-15T15:57:57;15.10;99.90
37412;DHT22;23278;52.110;6.050;2024-02-15T16:00:23;15.00;99.90